createdAt,value
2023-03-23T15:59:11.082Z,19.50
2023-03-23T16:01:41.823Z,19.40
2023-03-23T16:04:18.262Z,19.30
2023-03-23T16:06:45.429Z,19.20
2023-03-23T16:09:20.014Z,19.10
2023-03-23T16:11:46.918Z,19.10
2023-03-23T16:14:13.484Z,19.10
2023-03-23T16:16:49.726Z,19.00
2023-03-23T16:19:17.409Z,18.90
2023-03-23T16:21:44.177Z,18.90
2023-03-23T16:24:11.503Z,18.80
2023-03-23T16:26:40.044Z,18.70
2023-03-23T16:29:24.362Z,18.60
2023-03-23T16:32:06.978Z,18.50
2023-03-23T16:34:34.891Z,18.40
2023-03-23T16:37:02.002Z,18.40
2023-03-23T16:39:28.714Z,18.30
2023-03-23T16:41:55.224Z,18.20
2023-03-23T16:44:21.873Z,18.10
2023-03-23T16:46:48.376Z,17.90
2023-03-23T16:49:15.325Z,17.80
2023-03-23T16:51:42.875Z,17.60
2023-03-23T16:54:10.253Z,17.40
2023-03-23T16:56:37.438Z,17.10
2023-03-23T16:59:04.063Z,16.90
2023-03-23T17:01:30.607Z,16.60
2023-03-23T17:03:57.200Z,16.40
2023-03-23T17:06:23.778Z,16.20
2023-03-23T17:08:50.293Z,15.90
2023-03-23T17:11:16.766Z,15.90
2023-03-23T17:13:43.263Z,16.00
2023-03-23T17:16:09.870Z,16.10
2023-03-23T17:18:36.372Z,16.00
2023-03-23T17:21:03.106Z,16.00
2023-03-23T17:23:29.594Z,15.80
2023-03-23T17:25:56.056Z,15.50
2023-03-23T17:28:22.571Z,15.20
2023-03-23T17:30:51.514Z,14.90
2023-03-23T17:33:18.292Z,14.70
2023-03-23T17:35:46.997Z,14.70
2023-03-23T17:38:13.960Z,14.90
2023-03-23T17:40:40.461Z,15.00
2023-03-23T17:43:07.012Z,15.00
2023-03-23T17:45:33.596Z,15.00
2023-03-23T17:48:00.519Z,15.10
2023-03-23T17:50:27.102Z,15.00
2023-03-23T17:52:53.713Z,14.90
2023-03-23T17:55:20.325Z,15.00
2023-03-23T17:57:46.803Z,15.00
2023-03-23T18:00:14.583Z,15.10
2023-03-23T18:02:41.228Z,15.00
2023-03-23T18:05:09.183Z,15.00
2023-03-23T18:07:36.493Z,14.90
2023-03-23T18:10:10.785Z,14.90
2023-03-23T18:12:41.704Z,14.80
2023-03-23T18:15:09.499Z,14.70
2023-03-23T18:17:36.463Z,14.50
2023-03-23T18:20:06.217Z,14.50
2023-03-23T18:22:32.698Z,14.50
2023-03-23T18:24:59.219Z,14.30
2023-03-23T18:27:25.725Z,14.10
2023-03-23T18:29:52.223Z,14.00
2023-03-23T18:32:19.102Z,14.00
2023-03-23T18:34:46.122Z,14.10
2023-03-23T18:37:12.727Z,14.20
2023-03-23T18:39:39.256Z,14.20
2023-03-23T18:42:06.337Z,14.10
2023-03-23T18:44:33.088Z,14.00
2023-03-23T18:47:00.168Z,13.90
2023-03-23T18:49:28.176Z,13.80
2023-03-23T18:51:54.673Z,13.70
2023-03-23T18:54:21.237Z,13.70
2023-03-23T18:56:48.081Z,13.60
2023-03-23T18:59:14.891Z,13.30
2023-03-23T19:01:41.421Z,12.90
2023-03-23T19:04:07.969Z,12.50
2023-03-23T19:06:35.115Z,12.10
2023-03-23T19:09:01.825Z,11.70
2023-03-23T19:11:28.369Z,11.70
2023-03-23T19:14:02.188Z,11.60
2023-03-23T19:16:31.531Z,11.80
2023-03-23T19:18:59.067Z,12.00
2023-03-23T19:21:28.910Z,12.00
2023-03-23T19:23:56.537Z,12.20
2023-03-23T19:26:36.641Z,12.40
2023-03-23T19:31:37.129Z,12.70
2023-03-23T19:34:04.590Z,12.70
2023-03-23T19:36:31.381Z,12.80
2023-03-23T19:38:58.065Z,12.80
2023-03-23T19:41:31.129Z,12.80
2023-03-23T19:43:58.120Z,12.60
2023-03-23T19:46:26.486Z,12.60
2023-03-23T19:48:56.308Z,12.40
2023-03-23T19:51:26.822Z,12.30
2023-03-23T19:53:56.514Z,12.00
2023-03-23T19:56:23.455Z,11.60
2023-03-23T19:58:50.424Z,11.30
2023-03-23T20:01:17.266Z,11.10
2023-03-23T20:03:45.348Z,11.00
2023-03-23T20:06:14.446Z,11.00
2023-03-23T20:08:46.890Z,11.00
2023-03-23T20:11:17.510Z,10.90
2023-03-23T20:13:45.595Z,10.70
2023-03-23T20:16:12.186Z,10.60
2023-03-23T20:18:38.704Z,10.50
2023-03-23T20:21:09.986Z,10.40
2023-03-23T20:23:38.879Z,10.20
2023-03-23T20:26:21.584Z,10.30
2023-03-23T20:28:48.187Z,10.60
2023-03-23T20:31:23.515Z,10.90
2023-03-23T20:34:01.616Z,11.40
2023-03-23T20:36:41.267Z,11.50
2023-03-23T20:39:12.352Z,11.50
2023-03-23T20:41:39.446Z,11.60
2023-03-23T20:44:12.756Z,11.60
2023-03-23T20:46:39.397Z,11.60
2023-03-23T20:49:05.904Z,11.70
2023-03-23T20:51:32.808Z,11.60
2023-03-23T20:54:00.148Z,10.90
2023-03-23T20:56:26.865Z,10.70
2023-03-23T20:58:53.421Z,10.60
2023-03-23T21:01:20.773Z,10.50
2023-03-23T21:03:50.277Z,10.40
2023-03-23T21:06:18.442Z,10.30
2023-03-23T21:08:45.774Z,10.20
2023-03-23T21:11:19.059Z,10.30
2023-03-23T21:13:46.844Z,10.20
2023-03-23T21:16:14.067Z,10.30
2023-03-23T21:18:41.152Z,10.50
2023-03-23T21:21:10.393Z,10.70
2023-03-23T21:23:38.151Z,11.00
2023-03-23T21:26:10.099Z,11.10
2023-03-23T21:28:37.173Z,11.00
2023-03-23T21:31:06.604Z,11.10
2023-03-23T21:33:33.554Z,11.10
2023-03-23T21:36:00.775Z,11.10
2023-03-23T21:38:28.482Z,11.00
2023-03-23T21:40:58.284Z,11.10
2023-03-23T21:43:26.527Z,11.00
2023-03-23T21:45:58.575Z,10.80
2023-03-23T21:48:26.953Z,10.10
2023-03-23T21:50:54.216Z,9.60
2023-03-23T21:53:21.648Z,9.30
2023-03-23T21:55:53.789Z,9.30
2023-03-23T21:58:23.586Z,9.30
2023-03-23T22:00:53.253Z,9.10
2023-03-23T22:03:24.216Z,9.00
2023-03-23T22:05:55.950Z,8.90
2023-03-23T22:08:25.240Z,8.90
2023-03-23T22:11:00.740Z,8.80
2023-03-23T22:13:31.076Z,8.80
2023-03-23T22:16:02.763Z,8.70
2023-03-23T22:18:29.882Z,8.60
2023-03-23T22:20:58.264Z,8.50
2023-03-23T22:23:25.621Z,8.50
2023-03-23T22:25:52.250Z,8.50
2023-03-23T22:28:19.181Z,8.60
2023-03-23T22:30:46.687Z,8.50
2023-03-23T22:33:13.828Z,8.70
2023-03-23T22:35:40.373Z,8.60
2023-03-23T22:38:06.897Z,8.20
2023-03-23T22:40:33.462Z,8.00
2023-03-23T22:42:59.960Z,8.00
2023-03-23T22:45:27.315Z,8.00
2023-03-23T22:47:54.173Z,8.10
2023-03-23T22:50:23.280Z,8.20
2023-03-23T22:52:50.079Z,8.20
2023-03-23T22:55:16.689Z,8.40
2023-03-23T22:57:43.172Z,8.40
2023-03-23T23:00:13.896Z,8.50
2023-03-23T23:02:44.655Z,8.60
2023-03-23T23:05:13.009Z,8.50
2023-03-23T23:07:40.052Z,8.50
2023-03-23T23:10:10.323Z,8.40
2023-03-23T23:12:36.870Z,8.30
2023-03-23T23:15:06.323Z,8.40
2023-03-23T23:17:33.815Z,8.40
2023-03-23T23:20:00.788Z,8.50
2023-03-23T23:22:27.369Z,8.50
2023-03-23T23:24:53.908Z,8.50
2023-03-23T23:27:20.447Z,8.70
2023-03-23T23:29:46.996Z,8.90
2023-03-23T23:32:13.523Z,9.00
2023-03-23T23:34:41.008Z,8.80
2023-03-23T23:37:08.215Z,8.60
2023-03-23T23:39:37.548Z,8.70
2023-03-23T23:42:05.071Z,8.70
2023-03-23T23:44:31.661Z,8.60
2023-03-23T23:46:58.166Z,8.60
2023-03-23T23:49:27.767Z,8.60
2023-03-23T23:51:55.723Z,8.50
2023-03-23T23:54:22.639Z,8.30
2023-03-23T23:56:52.723Z,8.20
2023-03-23T23:59:19.244Z,8.20
